Fort Eustis, Virginia
Current Conditions -  °F | °C
As of 6:58 AM on Saturday 20 Dec 2014 (Local Time) from KFAF Reporting Station
Clear Clear  
Wind Chill: -2°   Ceiling: Unl
Heat Index:   Visibility: 10mi
Dew Point: -4°   Wind: 6mph
Humidity: 69%   Direction: 360°N
Pressure: 30.28"   Gusts: NA
Location:  37.13°N, 76.61°W
Report Text: KFAF 201158Z AUTO 36005KT 10SM CLR 01/M04 A3028 RMK AO2 SLP257 T00131039 10013 20008 53011 $
Loading
Personal Weather Stations






























Interactive Weather Map New forecast layout! Learn more

10-Day Weather Forecast

Advertisements
Track Severe Weather on mobile